Time;durP1;ratioP1;P1;durP2;ratioP2;P2;SDS_P1;SDS_P2;PMS_P1;PMS_P2;Temp;Humidity;BMP_temperature;BMP_pressure;BME280_temperature;BME280_humidity;BME280_pressure;Samples;Min_cycle;Max_cycle;Signal;HPM_P1;HPM_P2
2022/05/15 00:02:52;;;;;;;0.50;0.50;;;11.20;99.90;;;;;;5093857;28;20442;-70
2022/05/15 00:05:41;;;;;;;0.50;0.50;;;11.10;99.90;;;;;;5093742;28;20501;-72
2022/05/15 00:08:34;;;;;;;0.80;0.80;;;11.10;99.90;;;;;;5093783;28;20851;-73
2022/05/15 00:11:22;;;;;;;0.50;0.50;;;11.10;99.90;;;;;;5093481;28;20484;-69
2022/05/15 00:14:10;;;;;;;0.50;0.50;;;11.00;99.90;;;;;;5092789;28;20961;-70
2022/05/15 00:16:58;;;;;;;0.50;0.50;;;11.00;99.90;;;;;;5093479;28;20453;-70
2022/05/15 00:19:46;;;;;;;0.50;0.50;;;11.00;99.90;;;;;;5092975;28;20434;-70
2022/05/15 00:22:35;;;;;;;0.40;0.40;;;10.90;99.90;;;;;;5093159;28;20455;-70
2022/05/15 00:25:25;;;;;;;0.40;0.40;;;10.80;99.90;;;;;;5093260;28;20410;-69
2022/05/15 00:28:13;;;;;;;0.50;0.50;;;10.80;99.90;;;;;;5093509;28;20767;-71
2022/05/15 00:31:03;;;;;;;0.40;0.40;;;10.70;99.90;;;;;;5093003;28;20414;-68
2022/05/15 00:33:51;;;;;;;0.50;0.50;;;10.70;99.90;;;;;;5092610;28;20469;-70
2022/05/15 00:36:39;;;;;;;0.50;0.50;;;10.60;99.90;;;;;;5082112;28;20424;-69
2022/05/15 00:39:27;;;;;;;0.50;0.50;;;10.60;99.90;;;;;;5074387;28;20419;-70
2022/05/15 00:42:22;;;;;;;0.50;0.50;;;10.50;99.90;;;;;;5072135;28;20461;-69
2022/05/15 00:45:11;;;;;;;0.50;0.50;;;10.50;99.90;;;;;;5073251;28;20553;-70
2022/05/15 00:47:59;;;;;;;0.50;0.50;;;10.50;99.90;;;;;;5074047;28;20510;-72
2022/05/15 00:50:47;;;;;;;0.50;0.50;;;10.40;99.90;;;;;;5073511;28;20508;-70
2022/05/15 00:53:36;;;;;;;0.50;0.50;;;10.40;99.90;;;;;;5073672;28;20990;-71
2022/05/15 00:56:27;;;;;;;0.40;0.40;;;10.40;99.90;;;;;;5072811;28;20430;-70
2022/05/15 00:59:20;;;;;;;0.50;0.50;;;10.30;99.90;;;;;;5073739;28;20943;-71
2022/05/15 01:02:11;;;;;;;0.40;0.40;;;10.30;99.90;;;;;;5071784;28;20486;-71
2022/05/15 01:04:59;;;;;;;0.40;0.40;;;10.30;99.90;;;;;;5073865;28;20768;-69
2022/05/15 01:07:47;;;;;;;0.40;0.40;;;10.20;99.90;;;;;;5071702;28;20431;-71
2022/05/15 01:10:37;;;;;;;0.40;0.40;;;10.20;99.90;;;;;;5075341;28;20431;-69
2022/05/15 01:13:28;;;;;;;0.50;0.50;;;10.10;99.90;;;;;;5073026;28;20455;-69
2022/05/15 01:16:21;;;;;;;0.50;0.50;;;10.10;99.90;;;;;;5072903;28;20508;-68
2022/05/15 01:19:10;;;;;;;0.50;0.50;;;10.00;99.90;;;;;;5073351;28;20427;-71
2022/05/15 01:22:00;;;;;;;0.50;0.50;;;10.00;99.90;;;;;;5073043;28;20476;-69
2022/05/15 01:24:48;;;;;;;0.40;0.40;;;9.90;99.90;;;;;;5072823;28;20420;-71
2022/05/15 01:27:37;;;;;;;0.40;0.40;;;9.90;99.90;;;;;;5072208;28;20434;-70
2022/05/15 01:30:25;;;;;;;0.50;0.50;;;9.80;99.90;;;;;;5071364;28;20476;-69
2022/05/15 01:33:13;;;;;;;0.50;0.50;;;9.80;99.90;;;;;;5073148;28;20443;-69
2022/05/15 01:36:01;;;;;;;0.50;0.50;;;9.70;99.90;;;;;;5075643;28;20425;-69
2022/05/15 01:38:51;;;;;;;0.50;0.50;;;9.70;99.90;;;;;;5091332;28;20925;-70
2022/05/15 01:41:39;;;;;;;0.50;0.50;;;9.70;99.90;;;;;;5090614;28;20931;-70
2022/05/15 01:44:28;;;;;;;0.50;0.50;;;9.60;99.90;;;;;;5091200;28;20450;-68
2022/05/15 01:47:16;;;;;;;0.40;0.40;;;9.60;99.90;;;;;;5091432;28;20545;-70
2022/05/15 01:50:05;;;;;;;0.50;0.50;;;9.60;99.90;;;;;;5091296;28;20503;-69
2022/05/15 01:52:53;;;;;;;0.40;0.40;;;9.50;99.90;;;;;;5069831;28;20855;-71
2022/05/15 01:55:42;;;;;;;0.40;0.40;;;9.50;99.90;;;;;;5072597;28;20798;-71
2022/05/15 01:58:30;;;;;;;0.50;0.50;;;9.40;99.90;;;;;;5071689;28;20438;-71
2022/05/15 02:01:19;;;;;;;0.50;0.50;;;9.50;99.90;;;;;;5071723;28;20431;-68
2022/05/15 02:04:07;;;;;;;0.40;0.40;;;9.40;99.90;;;;;;5071092;28;20471;-70
2022/05/15 02:06:55;;;;;;;0.40;0.40;;;9.40;99.90;;;;;;5070613;28;20929;-71
2022/05/15 02:09:43;;;;;;;0.50;0.50;;;9.40;99.90;;;;;;5070588;28;20930;-70
2022/05/15 02:12:33;;;;;;;0.50;0.50;;;9.30;99.90;;;;;;5070633;28;20987;-71
2022/05/15 02:15:21;;;;;;;0.40;0.40;;;9.20;99.90;;;;;;5070821;28;20422;-69
2022/05/15 02:18:09;;;;;;;0.50;0.50;;;9.20;99.90;;;;;;5070255;28;20423;-71
2022/05/15 02:20:57;;;;;;;0.40;0.40;;;9.30;99.90;;;;;;5070848;28;21020;-70
2022/05/15 02:23:45;;;;;;;0.47;0.47;;;9.20;99.90;;;;;;5072209;28;21013;-69
2022/05/15 02:26:33;;;;;;;0.50;0.50;;;9.20;99.90;;;;;;5071676;28;20419;-69
2022/05/15 02:29:23;;;;;;;0.40;0.40;;;9.10;99.90;;;;;;5070264;28;20431;-70
2022/05/15 02:32:11;;;;;;;0.40;0.40;;;9.10;99.90;;;;;;5071528;28;20426;-69
2022/05/15 02:34:59;;;;;;;0.50;0.50;;;9.10;99.90;;;;;;5071004;28;20451;-70
2022/05/15 02:37:48;;;;;;;0.40;0.40;;;9.10;99.90;;;;;;5088888;28;20479;-69
2022/05/15 02:40:37;;;;;;;0.50;0.50;;;9.10;99.90;;;;;;5091846;28;20418;-71
2022/05/15 02:43:25;;;;;;;0.40;0.40;;;9.00;99.90;;;;;;5090565;28;20461;-71
2022/05/15 02:46:14;;;;;;;0.40;0.40;;;9.00;99.90;;;;;;5090558;28;20555;-69
2022/05/15 02:52:09;;;;;;;0.40;0.40;;;8.90;99.90;;;;;;5090746;28;20507;-70
2022/05/15 02:54:57;;;;;;;0.47;0.47;;;8.90;99.90;;;;;;5091237;28;20795;-69
2022/05/15 02:57:45;;;;;;;0.50;0.50;;;9.00;99.90;;;;;;5092584;28;20427;-70
2022/05/15 03:00:34;;;;;;;0.40;0.40;;;8.90;99.90;;;;;;5096118;28;20504;-71
2022/05/15 03:03:23;;;;;;;0.50;0.50;;;8.90;99.90;;;;;;5095439;28;20442;-70
2022/05/15 03:06:12;;;;;;;0.40;0.40;;;8.80;99.90;;;;;;5096815;28;20571;-70
2022/05/15 03:09:00;;;;;;;0.40;0.40;;;8.70;99.90;;;;;;5096214;28;20942;-70
2022/05/15 03:11:48;;;;;;;0.50;0.50;;;8.60;99.90;;;;;;5096263;28;20467;-67
2022/05/15 03:14:36;;;;;;;0.50;0.50;;;8.60;99.90;;;;;;5098683;28;20422;-68
2022/05/15 03:17:24;;;;;;;0.50;0.50;;;8.60;99.90;;;;;;5096854;28;20446;-69
2022/05/15 03:20:17;;;;;;;0.50;0.50;;;8.60;99.90;;;;;;5094837;28;20941;-68
2022/05/15 03:23:06;;;;;;;0.50;0.50;;;8.50;99.90;;;;;;5096390;28;20449;-70
2022/05/15 03:25:54;;;;;;;0.50;0.50;;;8.60;99.90;;;;;;5095787;28;20503;-71
2022/05/15 03:28:42;;;;;;;0.40;0.40;;;8.50;99.90;;;;;;5094693;28;20515;-70
2022/05/15 03:31:30;;;;;;;0.50;0.50;;;8.70;99.90;;;;;;5094510;28;20507;-71
2022/05/15 03:34:18;;;;;;;0.40;0.40;;;8.70;99.90;;;;;;5093871;28;20531;-69
2022/05/15 03:37:08;;;;;;;0.50;0.50;;;8.60;99.90;;;;;;5081652;28;20427;-70
2022/05/15 03:39:56;;;;;;;0.40;0.40;;;8.60;99.90;;;;;;5073891;28;20431;-70
2022/05/15 03:42:44;;;;;;;0.40;0.40;;;8.60;99.90;;;;;;5075342;28;20458;-69
2022/05/15 03:45:33;;;;;;;0.43;0.43;;;8.60;99.90;;;;;;5074709;28;20469;-69
2022/05/15 03:48:21;;;;;;;0.40;0.40;;;8.70;99.90;;;;;;5074264;28;20508;-68
2022/05/15 03:51:09;;;;;;;0.50;0.50;;;8.80;99.90;;;;;;5074181;28;20799;-71
2022/05/15 03:53:58;;;;;;;0.40;0.40;;;8.70;99.90;;;;;;5075233;28;20467;-71
2022/05/15 03:56:53;;;;;;;0.40;0.40;;;8.80;99.90;;;;;;5073396;28;20502;-71
2022/05/15 03:59:41;;;;;;;0.50;0.50;;;8.90;99.90;;;;;;5078704;28;20480;-71
2022/05/15 04:02:30;;;;;;;0.50;0.50;;;8.80;99.90;;;;;;5094357;28;20511;-69
2022/05/15 04:05:19;;;;;;;0.40;0.40;;;9.00;99.90;;;;;;5093612;28;20477;-69
2022/05/15 04:08:07;;;;;;;0.50;0.50;;;8.90;99.90;;;;;;5092944;28;20505;-71
2022/05/15 04:10:57;;;;;;;0.50;0.50;;;9.00;99.90;;;;;;5093329;28;20425;-68
2022/05/15 04:13:45;;;;;;;0.43;0.43;;;9.00;99.90;;;;;;5092593;28;20449;-71
2022/05/15 04:16:34;;;;;;;0.40;0.40;;;8.90;99.90;;;;;;5094075;28;20559;-68
2022/05/15 04:19:23;;;;;;;0.40;0.40;;;9.00;99.90;;;;;;5092738;28;20942;-68
2022/05/15 04:22:11;;;;;;;0.50;0.50;;;9.20;99.90;;;;;;5094590;28;20419;-70
2022/05/15 04:24:59;;;;;;;0.40;0.40;;;9.10;99.90;;;;;;5092966;28;20483;-69
2022/05/15 04:27:49;;;;;;;0.50;0.50;;;9.30;99.90;;;;;;5094109;28;20426;-70
2022/05/15 04:30:37;;;;;;;0.40;0.40;;;9.40;99.90;;;;;;5094128;28;20480;-69
2022/05/15 04:33:25;;;;;;;0.50;0.50;;;9.40;99.90;;;;;;5092180;28;20854;-68
2022/05/15 04:36:13;;;;;;;0.40;0.40;;;9.40;99.90;;;;;;5088142;28;20473;-69
2022/05/15 04:39:02;;;;;;;0.40;0.40;;;9.60;99.90;;;;;;5074461;28;20427;-70
2022/05/15 04:41:50;;;;;;;0.50;0.50;;;9.50;99.90;;;;;;5073864;28;20461;-71
2022/05/15 04:44:39;;;;;;;0.40;0.40;;;9.60;99.90;;;;;;5074114;28;20471;-69
2022/05/15 04:47:28;;;;;;;0.50;0.50;;;9.70;99.90;;;;;;5074075;28;20465;-69
2022/05/15 04:50:17;;;;;;;0.40;0.40;;;9.80;99.90;;;;;;5072564;28;20962;-69
2022/05/15 04:53:06;;;;;;;0.50;0.50;;;9.80;99.90;;;;;;5072056;28;20811;-69
2022/05/15 04:55:54;;;;;;;0.50;0.50;;;9.90;99.90;;;;;;5073442;28;20830;-69
2022/05/15 04:58:43;;;;;;;0.50;0.50;;;10.20;99.90;;;;;;5072249;28;20415;-69
2022/05/15 05:01:32;;;;;;;0.40;0.40;;;10.00;99.90;;;;;;5072834;28;20426;-69
2022/05/15 05:04:21;;;;;;;0.50;0.50;;;10.10;99.90;;;;;;5073759;28;20439;-69
2022/05/15 05:07:09;;;;;;;0.40;0.40;;;10.30;99.90;;;;;;5074015;28;20470;-68
2022/05/15 05:09:57;;;;;;;0.40;0.40;;;10.30;99.90;;;;;;5072738;28;20427;-69
2022/05/15 05:12:45;;;;;;;0.50;0.50;;;10.40;99.90;;;;;;5073305;28;20567;-69
2022/05/15 05:15:34;;;;;;;0.40;0.40;;;10.40;99.90;;;;;;5073874;28;20513;-69
2022/05/15 05:18:23;;;;;;;0.40;0.40;;;10.60;99.90;;;;;;5077072;28;20451;-70
2022/05/15 05:21:11;;;;;;;0.50;0.50;;;10.60;99.90;;;;;;5071898;28;20761;-69
2022/05/15 05:24:00;;;;;;;0.40;0.40;;;10.70;99.90;;;;;;5073801;28;20454;-69
2022/05/15 05:26:48;;;;;;;0.40;0.40;;;10.80;99.90;;;;;;5072942;28;20518;-69
2022/05/15 05:29:36;;;;;;;0.40;0.40;;;11.00;99.90;;;;;;5073105;28;21103;-69
2022/05/15 05:32:24;;;;;;;0.40;0.40;;;11.00;99.90;;;;;;5072899;28;20427;-68
2022/05/15 05:35:16;;;;;;;0.50;0.50;;;11.10;99.90;;;;;;5073755;28;20430;-69
2022/05/15 05:38:05;;;;;;;0.40;0.40;;;11.30;99.90;;;;;;5053577;28;20946;-69
2022/05/15 05:40:53;;;;;;;0.47;0.47;;;11.40;99.90;;;;;;5053490;28;20420;-69
2022/05/15 05:43:41;;;;;;;0.40;0.40;;;11.60;99.90;;;;;;5052546;28;21126;-69
2022/05/15 05:46:30;;;;;;;0.40;0.40;;;11.60;99.90;;;;;;5052587;28;20506;-69
2022/05/15 05:49:18;;;;;;;0.50;0.50;;;11.90;99.90;;;;;;5052447;28;20435;-69
2022/05/15 05:52:08;;;;;;;0.40;0.40;;;11.90;99.90;;;;;;5052472;28;20448;-69
2022/05/15 05:54:56;;;;;;;0.40;0.40;;;11.90;99.90;;;;;;5052567;28;20473;-69
2022/05/15 05:57:45;;;;;;;0.40;0.40;;;12.00;99.90;;;;;;5052160;28;20475;-69
2022/05/15 06:00:37;;;;;;;0.50;0.50;;;12.30;99.90;;;;;;5052501;28;20429;-69
2022/05/15 06:06:31;;;;;;;0.50;0.50;;;12.30;99.90;;;;;;5051680;28;20471;-69
2022/05/15 06:09:21;;;;;;;0.40;0.40;;;12.50;99.90;;;;;;5052718;28;20451;-69
2022/05/15 06:12:11;;;;;;;0.40;0.40;;;12.40;99.90;;;;;;5051961;28;20928;-68
2022/05/15 06:14:59;;;;;;;0.50;0.50;;;12.50;99.90;;;;;;5052689;28;20474;-69
2022/05/15 06:17:47;;;;;;;0.40;0.40;;;12.50;99.90;;;;;;5052670;28;20483;-68
2022/05/15 06:20:36;;;;;;;0.40;0.40;;;12.60;99.90;;;;;;5052469;28;20464;-69
2022/05/15 06:23:24;;;;;;;0.40;0.40;;;12.80;99.90;;;;;;5051464;28;20868;-71
2022/05/15 06:26:13;;;;;;;0.40;0.40;;;12.80;99.90;;;;;;5052296;28;20486;-69
2022/05/15 06:29:01;;;;;;;0.40;0.40;;;13.50;99.90;;;;;;5052560;28;20428;-68
2022/05/15 06:31:50;;;;;;;0.40;0.40;;;12.90;99.90;;;;;;5052170;28;20420;-69
2022/05/15 06:34:38;;;;;;;0.40;0.40;;;12.90;99.90;;;;;;5054352;28;20744;-70
2022/05/15 06:37:26;;;;;;;0.40;0.40;;;13.00;99.90;;;;;;5088463;28;20422;-69
2022/05/15 06:40:16;;;;;;;0.80;0.80;;;13.10;99.90;;;;;;5095431;28;20422;-68
2022/05/15 06:43:06;;;;;;;0.40;0.40;;;13.30;99.90;;;;;;5096081;28;21071;-69
2022/05/15 06:45:54;;;;;;;0.40;0.40;;;13.20;99.90;;;;;;5096533;28;20426;-69
2022/05/15 06:48:42;;;;;;;0.40;0.40;;;13.30;99.90;;;;;;5094995;28;20418;-69
2022/05/15 06:51:30;;;;;;;0.50;0.50;;;13.40;99.90;;;;;;5096317;28;20418;-71
2022/05/15 06:54:19;;;;;;;0.40;0.40;;;13.40;99.90;;;;;;5095904;28;20470;-68
2022/05/15 07:00:17;;;;;;;0.40;0.40;;;13.50;99.90;;;;;;5095360;28;20800;-69
2022/05/15 07:03:06;;;;;;;0.40;0.40;;;13.60;99.90;;;;;;5094628;28;20934;-68
2022/05/15 07:05:54;;;;;;;0.40;0.40;;;13.50;99.90;;;;;;5096586;28;20423;-69
2022/05/15 07:08:43;;;;;;;0.40;0.40;;;13.70;99.90;;;;;;5094794;28;20446;-69
2022/05/15 07:11:31;;;;;;;0.50;0.50;;;13.70;99.90;;;;;;5095653;28;20491;-68
2022/05/15 07:14:19;;;;;;;0.40;0.40;;;13.70;99.90;;;;;;5095281;28;20974;-69
2022/05/15 07:17:10;;;;;;;0.50;0.50;;;13.80;99.90;;;;;;5096099;28;20422;-68
2022/05/15 07:20:03;;;;;;;0.40;0.40;;;13.80;99.90;;;;;;5095801;28;20446;-69
2022/05/15 07:22:51;;;;;;;0.40;0.40;;;13.80;99.90;;;;;;5094876;28;21183;-69
2022/05/15 07:25:39;;;;;;;0.40;0.40;;;14.00;99.90;;;;;;5096237;28;20805;-68
2022/05/15 07:28:27;;;;;;;0.40;0.40;;;14.10;99.90;;;;;;5094772;28;20490;-68
2022/05/15 07:31:18;;;;;;;0.40;0.40;;;14.10;99.90;;;;;;5095805;28;20433;-69
2022/05/15 07:34:08;;;;;;;0.40;0.40;;;14.30;99.90;;;;;;5095269;28;20216;-68
2022/05/15 07:36:56;;;;;;;0.50;0.50;;;14.20;99.90;;;;;;5083990;28;20430;-68
2022/05/15 07:39:44;;;;;;;0.40;0.40;;;14.20;99.90;;;;;;5075248;28;20449;-68
2022/05/15 07:42:32;;;;;;;1.33;1.23;;;14.30;99.90;;;;;;5074162;28;20447;-68
2022/05/15 07:45:21;;;;;;;0.50;0.50;;;14.30;99.90;;;;;;5073972;28;20430;-69
2022/05/15 07:48:09;;;;;;;0.40;0.40;;;14.30;99.90;;;;;;5075983;28;20467;-70
2022/05/15 07:50:59;;;;;;;0.40;0.40;;;14.50;99.90;;;;;;5074798;28;20966;-68
2022/05/15 07:53:47;;;;;;;0.40;0.40;;;14.40;99.90;;;;;;5075031;28;20947;-69
2022/05/15 07:56:35;;;;;;;0.40;0.40;;;14.40;99.90;;;;;;5075961;28;20848;-69
2022/05/15 07:59:23;;;;;;;0.50;0.50;;;14.40;99.90;;;;;;5074896;28;20197;-68
2022/05/15 08:02:11;;;;;;;0.40;0.40;;;14.60;99.90;;;;;;5075011;28;20473;-69
2022/05/15 08:08:09;;;;;;;0.40;0.40;;;14.60;99.90;;;;;;5074815;28;20277;-69
2022/05/15 08:10:57;;;;;;;0.40;0.40;;;14.60;99.90;;;;;;5075319;28;20193;-68
2022/05/15 08:13:45;;;;;;;1.53;0.67;;;14.60;99.90;;;;;;5075506;28;20441;-69
2022/05/15 08:16:35;;;;;;;0.40;0.40;;;14.70;99.90;;;;;;5074389;28;20470;-69
2022/05/15 08:25:35;;;;;;;0.40;0.40;;;14.90;99.90;;;;;;5074979;28;20322;-68
2022/05/15 08:28:23;;;;;;;1.30;1.10;;;15.10;99.90;;;;;;5074205;28;20209;-73
2022/05/15 08:31:12;;;;;;;0.40;0.40;;;15.10;99.90;;;;;;5074157;28;20205;-69
2022/05/15 08:34:00;;;;;;;0.90;0.60;;;15.30;99.90;;;;;;5074978;28;20231;-68
2022/05/15 08:36:49;;;;;;;0.40;0.40;;;15.20;99.90;;;;;;5084422;28;20208;-69
2022/05/15 08:39:37;;;;;;;0.40;0.40;;;15.20;99.90;;;;;;5093793;28;20224;-69
2022/05/15 08:42:37;;;;;;;0.40;0.40;;;15.20;99.90;;;;;;5094363;28;20430;-69
2022/05/15 08:45:28;;;;;;;0.50;0.50;;;15.20;99.90;;;;;;5093614;28;20238;-69
2022/05/15 08:48:17;;;;;;;0.40;0.40;;;15.30;99.90;;;;;;5093695;28;20216;-68
2022/05/15 08:51:11;;;;;;;0.40;0.40;;;15.50;99.90;;;;;;5094849;28;20245;-69
2022/05/15 08:54:02;;;;;;;0.40;0.40;;;15.40;99.90;;;;;;5093984;28;20220;-69
2022/05/15 08:56:51;;;;;;;0.40;0.40;;;15.50;99.90;;;;;;5091749;28;20202;-69
2022/05/15 08:59:56;;;;;;;0.97;0.87;;;15.60;99.90;;;;;;5094004;28;20612;-69
2022/05/15 09:02:45;;;;;;;0.40;0.40;;;15.70;99.90;;;;;;5093425;28;20227;-69
2022/05/15 09:05:34;;;;;;;0.50;0.50;;;15.70;99.90;;;;;;5094583;28;20199;-70
2022/05/15 09:08:54;;;;;;;0.40;0.40;;;15.80;99.90;;;;;;5093665;28;20216;-69
2022/05/15 09:11:51;;;;;;;1.20;1.13;;;15.80;99.90;;;;;;5092854;28;20207;-69
2022/05/15 09:14:50;;;;;;;0.40;0.40;;;15.90;99.90;;;;;;5094454;28;20211;-68
2022/05/15 09:17:44;;;;;;;0.90;0.67;;;16.00;99.90;;;;;;5094380;28;20629;-69
2022/05/15 09:20:48;;;;;;;0.40;0.40;;;15.90;99.90;;;;;;5093383;28;20200;-68
2022/05/15 09:23:41;;;;;;;0.40;0.40;;;16.00;99.90;;;;;;5092738;28;20215;-69
2022/05/15 09:26:41;;;;;;;0.40;0.40;;;16.00;99.90;;;;;;5093147;28;20200;-68
2022/05/15 09:29:35;;;;;;;0.40;0.40;;;16.10;99.90;;;;;;5093076;28;20215;-69
2022/05/15 09:32:30;;;;;;;0.40;0.40;;;16.10;99.90;;;;;;5092565;28;20204;-69
2022/05/15 09:35:31;;;;;;;0.40;0.40;;;16.10;99.90;;;;;;5093688;28;20196;-69
2022/05/15 09:38:28;;;;;;;2.10;0.50;;;16.10;99.90;;;;;;5053238;28;20677;-68
2022/05/15 09:44:28;;;;;;;0.50;0.50;;;16.20;99.90;;;;;;5052389;28;20232;-68
2022/05/15 09:47:25;;;;;;;0.73;0.73;;;16.20;99.90;;;;;;5054334;28;20250;-69
2022/05/15 09:50:41;;;;;;;0.40;0.40;;;16.30;99.90;;;;;;5053770;28;20205;-67
2022/05/15 09:53:40;;;;;;;0.40;0.40;;;16.40;99.90;;;;;;5053768;28;20224;-68
2022/05/15 09:56:31;;;;;;;0.40;0.40;;;16.50;99.90;;;;;;5053605;28;20681;-70
2022/05/15 09:59:26;;;;;;;0.50;0.50;;;16.50;99.90;;;;;;5053276;28;20194;-68
2022/05/15 10:02:20;;;;;;;0.40;0.40;;;16.60;99.90;;;;;;5051456;28;20614;-68
2022/05/15 10:05:17;;;;;;;0.40;0.40;;;16.60;99.90;;;;;;5053501;28;20235;-68
2022/05/15 10:08:10;;;;;;;0.50;0.50;;;16.60;99.90;;;;;;5053240;28;20228;-73
2022/05/15 10:11:00;;;;;;;0.40;0.40;;;16.70;99.90;;;;;;5053256;28;20201;-69
2022/05/15 10:13:52;;;;;;;0.60;0.60;;;16.80;99.90;;;;;;5054409;28;20217;-68
2022/05/15 10:16:48;;;;;;;0.40;0.40;;;16.70;99.90;;;;;;5052026;28;20208;-69
2022/05/15 10:19:43;;;;;;;0.40;0.40;;;16.80;99.90;;;;;;5052885;28;20193;-70
2022/05/15 10:22:37;;;;;;;0.40;0.40;;;17.00;99.90;;;;;;5052764;28;20197;-72
2022/05/15 10:25:50;;;;;;;0.60;0.50;;;16.90;99.90;;;;;;5053159;28;20228;-68
2022/05/15 10:28:44;;;;;;;0.50;0.50;;;17.00;99.90;;;;;;5053113;28;20811;-72
2022/05/15 10:31:38;;;;;;;0.50;0.50;;;17.00;99.90;;;;;;5051294;28;20237;-68
2022/05/15 10:34:29;;;;;;;0.50;0.50;;;17.00;99.90;;;;;;5052701;28;20217;-68
2022/05/15 10:37:37;;;;;;;0.40;0.40;;;17.10;99.90;;;;;;5082823;28;20200;-69
2022/05/15 10:40:34;;;;;;;0.50;0.50;;;17.10;99.90;;;;;;5093483;28;20630;-69
2022/05/15 10:43:43;;;;;;;0.40;0.40;;;17.20;99.90;;;;;;5107196;22;20236;-70
2022/05/15 10:46:46;;;;;;;0.40;0.40;;;17.20;99.90;;;;;;5073682;28;20197;-70
2022/05/15 10:49:59;;;;;;;0.40;0.40;;;17.40;99.90;;;;;;5073378;28;20265;-70
2022/05/15 10:59:54;;;;;;;0.40;0.40;;;17.60;99.90;;;;;;5073661;28;20203;-70
2022/05/15 11:03:02;;;;;;;0.40;0.40;;;17.70;99.90;;;;;;5073687;28;20285;-71
2022/05/15 11:06:03;;;;;;;0.40;0.40;;;17.70;99.90;;;;;;5072931;28;20614;-71
2022/05/15 11:09:00;;;;;;;0.40;0.40;;;17.90;99.90;;;;;;5073378;28;20215;-70
2022/05/15 11:11:58;;;;;;;0.50;0.50;;;17.90;99.90;;;;;;5072736;28;20228;-70
2022/05/15 11:15:07;;;;;;;0.40;0.40;;;17.90;99.90;;;;;;5073189;28;20604;-70
2022/05/15 11:18:05;;;;;;;0.40;0.40;;;18.00;99.90;;;;;;5072392;28;20209;-70
2022/05/15 11:20:58;;;;;;;0.40;0.40;;;18.00;99.90;;;;;;5076160;28;20201;-70
2022/05/15 11:23:53;;;;;;;0.40;0.40;;;18.00;99.90;;;;;;5076903;28;20534;-70
2022/05/15 11:26:46;;;;;;;0.40;0.40;;;18.10;99.90;;;;;;5077193;28;20208;-70
2022/05/15 11:29:39;;;;;;;0.50;0.50;;;18.20;99.90;;;;;;5077487;28;20260;-70
2022/05/15 11:32:40;;;;;;;0.40;0.40;;;18.20;99.90;;;;;;5075641;28;20757;-71
2022/05/15 11:35:34;;;;;;;0.40;0.40;;;18.40;99.90;;;;;;5075289;28;20234;-70
2022/05/15 11:38:29;;;;;;;0.40;0.40;;;18.40;98.80;;;;;;5097109;28;20207;-72
2022/05/15 11:42:09;;;;;;;0.40;0.40;;;18.50;98.70;;;;;;5094842;28;20281;-72
2022/05/15 11:45:35;;;;;;;0.40;0.40;;;18.50;99.00;;;;;;5094197;28;20270;-70
2022/05/15 11:48:30;;;;;;;0.40;0.40;;;18.60;98.40;;;;;;5095082;28;20203;-70
2022/05/15 11:51:31;;;;;;;0.40;0.40;;;18.70;98.60;;;;;;5095896;28;20208;-70
2022/05/15 11:54:30;;;;;;;0.40;0.40;;;18.70;97.80;;;;;;5096235;28;20664;-70
2022/05/15 11:57:35;;;;;;;1.88;1.77;;;18.70;97.00;;;;;;5096811;28;20199;-70
2022/05/15 12:00:26;;;;;;;1.95;0.73;;;18.80;97.10;;;;;;5110778;28;20192;-70
2022/05/15 12:03:44;;;;;;;0.40;0.40;;;18.90;96.60;;;;;;5108921;28;20216;-71
2022/05/15 12:06:46;;;;;;;0.60;0.60;;;18.90;96.50;;;;;;5110900;28;20195;-71
2022/05/15 12:09:51;;;;;;;0.40;0.40;;;18.90;95.10;;;;;;5106685;28;20241;-70
2022/05/15 12:13:00;;;;;;;0.40;0.40;;;19.00;95.10;;;;;;5102750;28;20207;-70
2022/05/15 12:15:49;;;;;;;0.40;0.40;;;19.00;94.80;;;;;;5106986;28;20196;-71
2022/05/15 12:18:38;;;;;;;0.40;0.40;;;19.20;94.50;;;;;;5109502;28;20222;-70
2022/05/15 12:21:37;;;;;;;0.40;0.40;;;19.10;94.40;;;;;;5106954;28;20200;-73
2022/05/15 12:24:30;;;;;;;0.40;0.40;;;19.20;94.70;;;;;;5107547;28;20244;-70
2022/05/15 12:27:23;;;;;;;0.40;0.40;;;19.30;95.10;;;;;;5102445;28;20200;-71
2022/05/15 12:30:15;;;;;;;0.50;0.50;;;19.40;93.70;;;;;;5097778;28;20212;-72
2022/05/15 12:33:08;;;;;;;0.40;0.40;;;19.40;93.50;;;;;;5098275;28;20227;-70
2022/05/15 12:35:56;;;;;;;0.57;0.57;;;19.40;94.10;;;;;;5095882;28;20271;-70
2022/05/15 12:38:48;;;;;;;0.40;0.40;;;19.80;93.80;;;;;;5074809;28;20211;-70
2022/05/15 12:41:42;;;;;;;0.40;0.40;;;20.70;93.10;;;;;;5073643;28;20204;-70
2022/05/15 12:44:32;;;;;;;0.40;0.40;;;22.60;91.20;;;;;;5072119;28;20299;-70
2022/05/15 12:47:24;;;;;;;0.40;0.35;;;24.80;87.70;;;;;;5073045;28;20197;-70
2022/05/15 12:50:17;;;;;;;0.40;0.40;;;27.00;79.20;;;;;;5073086;28;20609;-71
2022/05/15 12:53:06;;;;;;;0.40;0.40;;;29.10;72.30;;;;;;5073478;28;20731;-71
2022/05/15 12:56:08;;;;;;;0.40;0.40;;;30.90;62.10;;;;;;5073472;28;20201;-72
2022/05/15 12:59:01;;;;;;;0.40;0.40;;;32.50;56.10;;;;;;5072844;28;20623;-71
2022/05/15 13:01:49;;;;;;;0.40;0.40;;;33.80;52.10;;;;;;5073191;28;20197;-71
2022/05/15 13:04:45;;;;;;;0.40;0.40;;;34.50;49.90;;;;;;5072650;28;20295;-71
2022/05/15 13:07:38;;;;;;;0.40;0.40;;;34.50;47.10;;;;;;5072912;28;20197;-71
2022/05/15 13:10:28;;;;;;;0.40;0.40;;;34.70;47.40;;;;;;5073682;28;20224;-72
2022/05/15 13:13:24;;;;;;;0.40;0.40;;;35.70;45.40;;;;;;5072774;28;20726;-72
2022/05/15 13:16:19;;;;;;;0.40;0.40;;;37.20;42.60;;;;;;5072639;28;20215;-72
2022/05/15 13:19:13;;;;;;;0.40;0.40;;;38.20;41.70;;;;;;5072809;28;20922;-71
2022/05/15 13:22:01;;;;;;;0.40;0.40;;;38.60;39.60;;;;;;5071944;28;20192;-71
2022/05/15 13:24:54;;;;;;;0.50;0.50;;;38.40;39.00;;;;;;5073510;28;20221;-71
2022/05/15 13:27:46;;;;;;;0.40;0.40;;;38.20;38.60;;;;;;5072546;28;20196;-71
2022/05/15 13:30:38;;;;;;;0.70;0.70;;;38.30;38.50;;;;;;5072237;28;20205;-71
2022/05/15 13:33:29;;;;;;;0.40;0.40;;;38.80;37.50;;;;;;5070922;28;20223;-71
2022/05/15 13:36:18;;;;;;;0.40;0.40;;;39.60;37.20;;;;;;5078757;28;20305;-72
2022/05/15 13:45:21;;;;;;;0.40;0.40;;;40.50;36.30;;;;;;5091670;28;20342;-72
2022/05/15 13:48:11;;;;;;;0.40;0.40;;;41.10;34.70;;;;;;5091307;28;20207;-71
2022/05/15 13:51:02;;;;;;;0.50;0.50;;;40.60;34.60;;;;;;5092716;28;20757;-73
2022/05/15 13:54:10;;;;;;;0.50;0.50;;;39.80;34.20;;;;;;5091659;28;20231;-71
2022/05/15 13:57:08;;;;;;;0.40;0.40;;;37.80;34.70;;;;;;5090403;28;20253;-71
2022/05/15 14:00:10;;;;;;;0.50;0.50;;;34.90;36.90;;;;;;5090913;28;20224;-71
2022/05/15 14:03:01;;;;;;;0.40;0.40;;;32.80;38.50;;;;;;5091384;28;20215;-71
2022/05/15 14:06:18;;;;;;;0.40;0.40;;;31.60;41.20;;;;;;5092362;28;20640;-72
2022/05/15 14:09:09;;;;;;;0.40;0.40;;;31.10;41.60;;;;;;5091184;28;20269;-71
2022/05/15 14:12:01;;;;;;;0.40;0.40;;;31.60;41.50;;;;;;5092336;28;20625;-71
2022/05/15 14:14:53;;;;;;;0.40;0.40;;;31.90;41.30;;;;;;5090813;28;20231;-71
2022/05/15 14:17:48;;;;;;;0.40;0.40;;;33.90;39.60;;;;;;5090619;28;20721;-71
2022/05/15 14:20:39;;;;;;;0.40;0.40;;;35.20;37.80;;;;;;5091476;28;20781;-72
2022/05/15 14:23:30;;;;;;;0.40;0.40;;;37.00;36.60;;;;;;5091622;28;20288;-71
2022/05/15 14:26:19;;;;;;;0.40;0.40;;;37.40;35.70;;;;;;5090943;28;20279;-71
2022/05/15 14:29:07;;;;;;;0.40;0.40;;;37.70;35.00;;;;;;5090528;28;20290;-71
2022/05/15 14:32:01;;;;;;;0.40;0.40;;;37.90;35.30;;;;;;5091856;28;20196;-72
2022/05/15 14:34:50;;;;;;;0.40;0.40;;;38.90;35.60;;;;;;5090795;28;20718;-72
2022/05/15 14:37:38;;;;;;;0.40;0.40;;;40.40;34.30;;;;;;5073767;28;20200;-72
2022/05/15 14:40:27;;;;;;;0.40;0.40;;;41.50;33.20;;;;;;5071604;28;20282;-72
2022/05/15 14:43:16;;;;;;;0.40;0.40;;;42.20;32.40;;;;;;5070686;28;20273;-72
2022/05/15 14:46:09;;;;;;;0.40;0.40;;;41.10;32.00;;;;;;5072306;28;20204;-72
2022/05/15 14:48:58;;;;;;;0.40;0.40;;;39.30;33.50;;;;;;5072217;28;20229;-72
2022/05/15 14:51:46;;;;;;;0.40;0.40;;;39.40;34.20;;;;;;5071631;28;20742;-71
2022/05/15 14:54:35;;;;;;;0.40;0.40;;;39.60;33.70;;;;;;5072168;28;20220;-71
2022/05/15 14:57:25;;;;;;;0.50;0.50;;;40.00;33.00;;;;;;5075563;28;20574;-72
2022/05/15 15:00:14;;;;;;;0.40;0.40;;;40.50;32.70;;;;;;5074593;28;20227;-72
2022/05/15 15:03:02;;;;;;;0.40;0.40;;;41.10;33.10;;;;;;5075010;28;20224;-71
2022/05/15 15:05:52;;;;;;;0.40;0.40;;;42.10;32.30;;;;;;5076223;28;20196;-72
2022/05/15 15:08:41;;;;;;;0.40;0.40;;;41.80;31.80;;;;;;5075212;28;20208;-71
2022/05/15 15:11:31;;;;;;;0.50;0.50;;;41.50;31.70;;;;;;5074965;28;20655;-72
2022/05/15 15:14:22;;;;;;;0.40;0.40;;;41.80;31.50;;;;;;5075161;28;20224;-71
2022/05/15 15:17:10;;;;;;;0.50;0.50;;;41.30;32.10;;;;;;5075934;28;20205;-72
2022/05/15 15:19:58;;;;;;;0.40;0.40;;;40.70;31.90;;;;;;5075053;28;20203;-72
2022/05/15 15:22:46;;;;;;;0.50;0.50;;;40.90;31.20;;;;;;5074351;28;20197;-72
2022/05/15 15:25:34;;;;;;;0.47;0.47;;;41.30;31.00;;;;;;5075881;28;20200;-72
2022/05/15 15:28:22;;;;;;;0.50;0.50;;;41.50;31.60;;;;;;5074837;28;20201;-73
2022/05/15 15:31:12;;;;;;;0.40;0.40;;;41.70;31.00;;;;;;5074746;28;20200;-72
2022/05/15 15:34:04;;;;;;;0.50;0.50;;;42.20;31.30;;;;;;5075281;28;20221;-72